Terminal Aerodrome Forecast
Issued by NWS

Home | Current Version | Previous Version | Graphics & Text | Print | Product List | Glossary On
Versions: 1 2 3 4 5 6 7 8 9 10 11 12 13 14 15
000
FTUS42 KMHX 291723
TAFOAJ
TAF
KOAJ 291723Z 2918/3018 08007KT P6SM SCT060 SCT100
     FM300200 08004KT P6SM SCT250
     FM300700 00000KT 2SM BR SCT010
     FM301300 14006KT P6SM FEW250
      AMD LTD TO CLD VIS AND WIND=

USA.gov is the U.S. government's official web portal to all federal, state and local government web resources and services.